createdAt,value
2024-02-29T14:49:43.500Z,32.60
2024-02-29T14:54:50.881Z,33.40
2024-02-29T14:59:58.387Z,35.40
2024-02-29T15:05:10.510Z,35.40
2024-02-29T15:10:22.309Z,37.30
2024-02-29T15:15:33.361Z,33.00
2024-02-29T15:20:47.996Z,35.80
2024-02-29T15:25:55.921Z,34.10
2024-02-29T15:31:03.282Z,32.40
2024-02-29T15:36:13.736Z,32.90
2024-02-29T15:41:21.681Z,34.20
2024-02-29T15:51:35.543Z,34.80
2024-02-29T15:56:47.538Z,35.20
2024-02-29T16:01:55.481Z,33.80
2024-02-29T16:12:13.225Z,33.20
2024-02-29T16:17:20.666Z,34.50
2024-02-29T16:22:28.706Z,31.70
2024-02-29T16:27:36.600Z,31.30
2024-02-29T16:32:47.309Z,32.50
2024-02-29T16:37:57.807Z,30.30
2024-02-29T16:43:07.388Z,30.40
2024-02-29T16:48:17.844Z,29.20
2024-02-29T16:53:25.903Z,29.40
2024-02-29T16:58:37.196Z,28.60
2024-02-29T17:03:48.895Z,25.90
2024-02-29T17:08:56.485Z,24.60
2024-02-29T17:14:04.046Z,24.80
2024-02-29T17:19:11.655Z,26.70
2024-02-29T17:24:24.614Z,24.30
2024-02-29T17:29:32.579Z,25.20
2024-02-29T17:34:39.987Z,23.60
2024-02-29T17:39:54.636Z,24.70
2024-02-29T17:45:12.415Z,23.60
2024-02-29T17:50:23.903Z,23.00
2024-02-29T17:55:31.648Z,21.00
2024-02-29T18:00:41.543Z,20.10
2024-02-29T18:05:52.079Z,21.70
2024-02-29T18:10:59.765Z,23.10
2024-02-29T18:16:08.643Z,26.60
2024-02-29T18:21:17.263Z,25.80
2024-02-29T18:26:24.716Z,26.50
2024-02-29T18:31:55.786Z,28.80
2024-02-29T18:37:03.292Z,33.10
2024-02-29T18:42:11.537Z,33.10
2024-02-29T18:47:21.879Z,40.30
2024-02-29T18:52:30.924Z,40.40
2024-02-29T18:57:49.664Z,43.30
2024-02-29T19:02:59.926Z,43.70
2024-02-29T19:08:22.642Z,44.70
2024-02-29T19:13:39.708Z,47.50
2024-02-29T19:18:58.518Z,44.80
2024-02-29T19:24:13.052Z,49.30
2024-02-29T19:29:22.753Z,48.20
2024-02-29T19:34:30.818Z,48.00
2024-02-29T19:39:41.414Z,48.30
2024-02-29T19:44:54.410Z,45.90
2024-02-29T19:50:57.000Z,49.60
2024-02-29T19:57:11.624Z,47.40
2024-02-29T20:02:43.263Z,45.90
2024-02-29T20:07:57.629Z,48.90
2024-02-29T20:13:09.339Z,48.70
2024-02-29T20:18:24.571Z,47.10
2024-02-29T20:23:33.059Z,50.80
2024-02-29T20:28:48.938Z,52.10
2024-02-29T20:34:00.167Z,51.60
2024-02-29T20:39:14.562Z,50.30
2024-02-29T20:44:43.785Z,51.00
2024-02-29T20:50:35.362Z,53.00
2024-02-29T20:56:26.640Z,51.90
2024-02-29T21:15:04.655Z,54.70
2024-02-29T21:20:18.013Z,49.10
2024-02-29T21:25:44.256Z,48.10
2024-02-29T21:31:10.069Z,50.30
2024-02-29T21:37:30.786Z,41.70
2024-02-29T21:43:03.192Z,47.40
2024-02-29T21:55:12.537Z,43.60
2024-02-29T22:00:30.573Z,47.90
2024-02-29T22:06:32.958Z,47.70
2024-02-29T22:11:58.079Z,47.00
2024-02-29T22:17:11.640Z,44.90
2024-02-29T22:22:22.576Z,38.50
2024-02-29T22:27:44.834Z,44.10
2024-02-29T22:33:13.950Z,50.20
2024-02-29T22:38:32.819Z,45.70
2024-02-29T22:43:47.238Z,47.30
2024-02-29T22:49:06.356Z,45.20
2024-02-29T22:59:23.621Z,47.30
2024-02-29T23:04:41.565Z,50.00
2024-02-29T23:09:52.655Z,45.50
2024-02-29T23:15:05.406Z,51.20
2024-02-29T23:20:18.869Z,44.40
2024-02-29T23:25:28.461Z,47.30
2024-02-29T23:30:36.883Z,46.70
2024-02-29T23:35:47.323Z,50.70
2024-02-29T23:40:56.468Z,48.00
2024-02-29T23:46:08.786Z,45.90
2024-02-29T23:51:18.036Z,50.50
2024-02-29T23:56:28.024Z,46.50
